Marcos A. Gelabert International Airport
MPMG : now visible

Airfield :











YOU CAN JOIN US ON...

 
LOGIN :

Register | Disclaimer

   EN    FR    IT 

 









Legend :    VFR   Marginal VFR   IFR   Intensive IFR   Very Intensive IFR
Visi :
Ceiling :
>= 8 km
>= 3000ft
5 to 8 km
1000 to 3000 ft
1500m to 5 km
500 to 1000 ft
800 to 1500m
200 to 500 ft
< 800m
< 200 ft
Symbols :   Thunderstorms  Fog  Heavy snow  Heavy precipitations  Wind > 20 kt







- Airport Elevation : 31 ft
- IATA code : PAC


MPMG - Marcos A. Gelabert International

CURRENT METAR :
  • 161600Z 18006KT 110V220 9999 SCT017 29/24 Q1013 NOSIG

EXPIRED METARs :
  • 161500Z 17005KT 120V200 9999 FEW017 28/24 Q1013 NOSIG
  • 161400Z 19004KT 130V230 9999 FEW015TCU SCT080 27/24 Q1014 NOSIG

TAF TAF MPMG
Valid from the 16 at 12:00 until the 17 at 00:00 UTC


161130Z 1612/1624 33006KT 9999 SCT018 SCT090
PROB30
TEMPO 1619/1621 19006KT 6000 TSRA SCT016CB SCT090
No reported NOTAMs for that airfield.



MET'MAP, your aeronautical weather chart ! - Copyright ORBIFLY December 2007 - Disclaimer

ORBIFLY MET'MAP TEAM :

Programming & Development : Alexandra Zaïnal
Concept & Development : Baudouin d'Aumeries
Co-Development & Prog : Marc-Olivier Méhu
Technical & hardware support : Manuel Goepfert

Contact : metmap@orbifly.com




SOURCES & CREDITS :

   NOAA       Earth
Advisory